createdAt,value
2019-02-25T00:00:15.754Z,-1.02
2019-02-25T00:01:15.814Z,-1.04
2019-02-25T00:02:15.796Z,-1.06
2019-02-25T00:03:15.812Z,-1.07
2019-02-25T00:04:15.778Z,-1.11
2019-02-25T00:05:15.822Z,-1.15
2019-02-25T00:06:15.848Z,-1.19
2019-02-25T00:07:15.813Z,-1.18
2019-02-25T00:08:15.815Z,-1.15
2019-02-25T00:09:15.772Z,-1.15
2019-02-25T00:10:15.767Z,-1.15
2019-02-25T00:11:15.754Z,-1.17
2019-02-25T00:12:15.763Z,-1.15
2019-02-25T00:13:15.821Z,-1.13
2019-02-25T00:14:15.818Z,-1.08
2019-02-25T00:15:15.761Z,-0.99
2019-02-25T00:16:15.854Z,-0.99
2019-02-25T00:17:15.820Z,-1.03
2019-02-25T00:18:15.821Z,-1.03
2019-02-25T00:19:15.821Z,-1.06
2019-02-25T00:20:15.753Z,-1.07
2019-02-25T00:21:15.753Z,-1.08
2019-02-25T00:22:15.756Z,-1.14
2019-02-25T00:23:15.824Z,-1.15
2019-02-25T00:24:15.759Z,-1.19
2019-02-25T00:25:15.823Z,-1.25
2019-02-25T00:26:15.770Z,-1.29
2019-02-25T00:27:15.826Z,-1.30
2019-02-25T00:28:15.760Z,-1.29
2019-02-25T00:29:15.834Z,-1.26
2019-02-25T00:30:15.759Z,-1.26
2019-02-25T00:31:15.831Z,-1.30
2019-02-25T00:32:15.829Z,-1.32
2019-02-25T00:33:15.841Z,-1.30
2019-02-25T00:34:15.852Z,-1.30
2019-02-25T00:35:15.846Z,-1.28
2019-02-25T00:36:15.736Z,-1.19
2019-02-25T00:37:15.769Z,-1.14
2019-02-25T00:38:15.811Z,-1.15
2019-02-25T00:39:15.789Z,-1.18
2019-02-25T00:40:15.856Z,-1.21
2019-02-25T00:41:15.860Z,-1.21
2019-02-25T00:42:15.832Z,-1.22
2019-02-25T00:43:15.720Z,-1.21
2019-02-25T00:44:15.784Z,-1.19
2019-02-25T00:45:15.716Z,-1.18
2019-02-25T00:46:15.737Z,-1.21
2019-02-25T00:47:15.738Z,-1.24
2019-02-25T00:48:15.733Z,-1.28
2019-02-25T00:49:15.786Z,-1.32
2019-02-25T00:50:15.787Z,-1.40
2019-02-25T00:51:15.675Z,-1.44
2019-02-25T00:52:15.804Z,-1.48
2019-02-25T00:53:15.742Z,-1.52
2019-02-25T00:54:15.820Z,-1.49
2019-02-25T00:55:15.794Z,-1.49
2019-02-25T00:56:15.787Z,-1.52
2019-02-25T00:57:15.826Z,-1.49
2019-02-25T00:58:15.883Z,-1.51
2019-02-25T00:59:15.865Z,-1.54
2019-02-25T01:00:15.799Z,-1.52
2019-02-25T01:01:15.851Z,-1.52
2019-02-25T01:02:15.811Z,-1.52
2019-02-25T01:03:15.864Z,-1.51
2019-02-25T01:04:15.852Z,-1.49
2019-02-25T01:05:15.746Z,-1.48
2019-02-25T01:06:15.783Z,-1.49
2019-02-25T01:07:15.846Z,-1.52
2019-02-25T01:08:15.742Z,-1.51
2019-02-25T01:09:15.766Z,-1.48
2019-02-25T01:10:15.743Z,-1.45
2019-02-25T01:11:15.737Z,-1.45
2019-02-25T01:12:15.759Z,-1.51
2019-02-25T01:13:15.858Z,-1.52
2019-02-25T01:14:15.818Z,-1.55
2019-02-25T01:15:15.842Z,-1.59
2019-02-25T01:16:15.987Z,-1.60
2019-02-25T01:17:15.823Z,-1.65
2019-02-25T01:18:15.886Z,-1.65
2019-02-25T01:19:15.839Z,-1.67
2019-02-25T01:20:15.767Z,-1.71
2019-02-25T01:21:15.874Z,-1.74
2019-02-25T01:22:15.847Z,-1.77
2019-02-25T01:23:15.900Z,-1.81
2019-02-25T01:24:15.869Z,-1.84
2019-02-25T01:25:15.870Z,-1.88
2019-02-25T01:26:15.798Z,-1.81
2019-02-25T01:27:15.869Z,-1.81
2019-02-25T01:28:15.801Z,-1.80
2019-02-25T01:29:15.869Z,-1.76
2019-02-25T01:30:15.812Z,-1.71
2019-02-25T01:31:15.800Z,-1.70
2019-02-25T01:32:15.878Z,-1.71
2019-02-25T01:33:15.811Z,-1.76
2019-02-25T01:34:15.863Z,-1.74
2019-02-25T01:35:15.860Z,-1.77
2019-02-25T01:36:15.869Z,-1.80
2019-02-25T01:37:15.862Z,-1.82
2019-02-25T01:38:15.869Z,-1.85
2019-02-25T01:39:15.803Z,-1.87
2019-02-25T01:40:15.877Z,-1.91
2019-02-25T01:41:15.820Z,-1.97
2019-02-25T01:42:15.877Z,-2.04
2019-02-25T01:43:15.777Z,-2.08
2019-02-25T01:44:15.891Z,-2.15
2019-02-25T01:45:15.820Z,-2.22
2019-02-25T01:46:15.819Z,-2.26
2019-02-25T01:47:15.887Z,-2.30
2019-02-25T01:48:15.882Z,-2.33
2019-02-25T01:49:15.819Z,-2.33
2019-02-25T01:50:15.886Z,-2.33
2019-02-25T01:51:15.889Z,-2.35
2019-02-25T01:52:15.827Z,-2.35
2019-02-25T01:53:15.889Z,-2.34
2019-02-25T01:54:15.834Z,-2.35
2019-02-25T01:55:15.904Z,-2.40
2019-02-25T01:56:15.901Z,-2.42
2019-02-25T01:57:15.890Z,-2.47
2019-02-25T01:58:15.900Z,-2.48
2019-02-25T01:59:15.849Z,-2.49
2019-02-25T02:00:15.840Z,-2.51
2019-02-25T02:01:15.827Z,-2.55
2019-02-25T02:02:15.904Z,-2.59
2019-02-25T02:03:15.904Z,-2.59
2019-02-25T02:04:15.852Z,-2.51
2019-02-25T02:05:15.847Z,-2.48
2019-02-25T02:06:15.870Z,-2.48
2019-02-25T02:07:15.845Z,-2.45
2019-02-25T02:08:15.867Z,-2.41
2019-02-25T02:09:15.853Z,-2.35
2019-02-25T02:10:15.838Z,-2.37
2019-02-25T02:11:15.903Z,-2.40
2019-02-25T02:13:15.913Z,-2.45
2019-02-25T02:14:15.856Z,-2.42
2019-02-25T02:15:15.915Z,-2.41
2019-02-25T02:16:15.917Z,-2.44
2019-02-25T02:17:15.813Z,-2.48
2019-02-25T02:18:15.938Z,-2.55
2019-02-25T02:19:15.932Z,-2.55
2019-02-25T02:20:15.817Z,-2.57
2019-02-25T02:21:15.910Z,-2.52
2019-02-25T02:22:15.862Z,-2.48
2019-02-25T02:23:15.922Z,-2.37
2019-02-25T02:24:15.919Z,-2.26
2019-02-25T02:25:15.936Z,-2.15
2019-02-25T02:26:15.849Z,-2.12
2019-02-25T02:27:15.929Z,-2.11
2019-02-25T02:28:15.921Z,-2.11
2019-02-25T02:29:15.865Z,-2.12
2019-02-25T02:30:15.879Z,-2.12
2019-02-25T02:31:15.924Z,-2.07
2019-02-25T02:32:15.866Z,-2.04
2019-02-25T02:33:15.925Z,-1.98
2019-02-25T02:34:15.927Z,-1.97
2019-02-25T02:35:15.875Z,-1.97
2019-02-25T02:36:15.940Z,-1.98
2019-02-25T02:37:15.937Z,-2.02
2019-02-25T02:38:15.944Z,-2.05
2019-02-25T02:39:15.933Z,-2.11
2019-02-25T02:40:15.936Z,-2.15
2019-02-25T02:41:15.931Z,-2.13
2019-02-25T02:42:15.998Z,-2.12
2019-02-25T02:43:15.946Z,-2.09
2019-02-25T02:44:15.880Z,-2.11
2019-02-25T02:45:15.945Z,-2.12
2019-02-25T02:46:15.865Z,-2.15
2019-02-25T02:47:15.993Z,-2.20
2019-02-25T02:48:15.953Z,-2.26
2019-02-25T02:49:15.975Z,-2.31
2019-02-25T02:50:15.889Z,-2.35
2019-02-25T02:51:15.915Z,-2.35
2019-02-25T02:52:15.969Z,-2.31
2019-02-25T02:53:15.911Z,-2.27
2019-02-25T02:54:15.931Z,-2.27
2019-02-25T02:55:15.897Z,-2.30
2019-02-25T02:56:15.930Z,-2.34
2019-02-25T02:57:15.925Z,-2.38
2019-02-25T02:58:15.900Z,-2.45
2019-02-25T02:59:15.933Z,-2.49
2019-02-25T03:00:15.926Z,-2.55
2019-02-25T03:01:15.900Z,-2.53
2019-02-25T03:02:15.887Z,-2.44
2019-02-25T03:03:15.930Z,-2.38
2019-02-25T03:04:15.951Z,-2.40
2019-02-25T03:05:15.915Z,-2.41
2019-02-25T03:06:15.960Z,-2.42
2019-02-25T03:07:15.950Z,-2.45
2019-02-25T03:08:15.942Z,-2.48
2019-02-25T03:09:15.888Z,-2.51
2019-02-25T03:10:15.897Z,-2.57
2019-02-25T03:11:15.963Z,-2.63
2019-02-25T03:12:15.898Z,-2.61
2019-02-25T03:13:15.953Z,-2.61
2019-02-25T03:14:15.862Z,-2.67
2019-02-25T03:15:15.899Z,-2.72
2019-02-25T03:16:15.909Z,-2.74
2019-02-25T03:17:15.884Z,-2.74
2019-02-25T03:18:15.966Z,-2.78
2019-02-25T03:19:15.975Z,-2.78
2019-02-25T03:20:15.966Z,-2.83
2019-02-25T03:21:15.923Z,-2.86
2019-02-25T03:22:15.962Z,-2.89
2019-02-25T03:23:15.904Z,-2.93
2019-02-25T03:24:15.955Z,-2.97
2019-02-25T03:25:15.893Z,-2.98
2019-02-25T03:26:15.956Z,-2.92
2019-02-25T03:27:15.959Z,-2.81
2019-02-25T03:28:15.895Z,-2.75
2019-02-25T03:29:15.955Z,-2.65
2019-02-25T03:30:15.904Z,-2.53
2019-02-25T03:31:15.959Z,-2.52
2019-02-25T03:32:16.248Z,-2.51
2019-02-25T03:33:15.967Z,-2.49
2019-02-25T03:34:15.900Z,-2.48
2019-02-25T03:35:15.960Z,-2.49
2019-02-25T03:36:15.898Z,-2.47
2019-02-25T03:37:15.913Z,-2.47
2019-02-25T03:38:15.966Z,-2.40
2019-02-25T03:39:15.898Z,-2.33
2019-02-25T03:40:15.904Z,-2.26
2019-02-25T03:41:15.903Z,-2.23
2019-02-25T03:42:15.968Z,-2.20
2019-02-25T03:43:15.901Z,-2.18
2019-02-25T03:44:15.923Z,-2.19
2019-02-25T03:45:15.876Z,-2.19
2019-02-25T03:46:15.868Z,-2.19
2019-02-25T03:47:15.927Z,-2.22
2019-02-25T03:48:15.872Z,-2.20
2019-02-25T03:49:15.985Z,-2.24
2019-02-25T03:50:15.916Z,-2.27
2019-02-25T03:51:16.006Z,-2.30
2019-02-25T03:52:15.888Z,-2.26
2019-02-25T03:53:15.881Z,-2.26
2019-02-25T03:54:15.997Z,-2.26
2019-02-25T03:55:15.978Z,-2.26
2019-02-25T03:56:15.954Z,-2.27
2019-02-25T03:57:15.980Z,-2.26
2019-02-25T03:58:16.010Z,-2.26
2019-02-25T03:59:15.977Z,-2.29
2019-02-25T04:00:15.944Z,-2.34
2019-02-25T04:01:15.880Z,-2.35
2019-02-25T04:02:15.949Z,-2.40
2019-02-25T04:03:16.013Z,-2.42
2019-02-25T04:04:15.991Z,-2.45
2019-02-25T04:05:16.023Z,-2.44
2019-02-25T04:06:15.919Z,-2.47
2019-02-25T04:07:15.999Z,-2.49
2019-02-25T04:08:15.965Z,-2.52
2019-02-25T04:09:15.982Z,-2.59
2019-02-25T04:10:15.938Z,-2.55
2019-02-25T04:11:15.888Z,-2.51
2019-02-25T04:12:15.995Z,-2.48
2019-02-25T04:13:16.003Z,-2.48
2019-02-25T04:14:15.946Z,-2.48
2019-02-25T04:15:15.930Z,-2.53
2019-02-25T04:16:15.969Z,-2.57
2019-02-25T04:17:15.895Z,-2.57
2019-02-25T04:18:15.879Z,-2.57
2019-02-25T04:19:15.949Z,-2.60
2019-02-25T04:20:15.886Z,-2.65
2019-02-25T04:21:15.949Z,-2.68
2019-02-25T04:22:15.855Z,-2.74
2019-02-25T04:23:15.952Z,-2.78
2019-02-25T04:24:15.946Z,-2.79
2019-02-25T04:25:16.067Z,-2.85
2019-02-25T04:26:15.855Z,-2.85
2019-02-25T04:27:15.890Z,-2.87
2019-02-25T04:28:15.939Z,-2.87
2019-02-25T04:29:15.898Z,-2.82
2019-02-25T04:30:15.903Z,-2.81
2019-02-25T04:31:15.853Z,-2.78
2019-02-25T04:32:15.831Z,-2.72
2019-02-25T04:33:15.847Z,-2.74
2019-02-25T04:34:15.883Z,-2.72
2019-02-25T04:35:15.905Z,-2.75
2019-02-25T04:36:15.999Z,-2.76
2019-02-25T04:37:16.005Z,-2.81
2019-02-25T04:38:16.006Z,-2.79
2019-02-25T04:39:16.005Z,-2.81
2019-02-25T04:40:15.953Z,-2.81
2019-02-25T04:41:15.890Z,-2.81
2019-02-25T04:42:15.911Z,-2.83
2019-02-25T04:43:15.913Z,-2.85
2019-02-25T04:44:15.919Z,-2.86
2019-02-25T04:45:16.003Z,-2.82
2019-02-25T04:46:15.996Z,-2.78
2019-02-25T04:47:15.901Z,-2.81
2019-02-25T04:48:15.922Z,-2.85
2019-02-25T04:49:15.947Z,-2.90
2019-02-25T04:50:15.962Z,-2.94
2019-02-25T04:51:16.013Z,-2.97
2019-02-25T04:52:15.902Z,-2.97
2019-02-25T04:53:15.963Z,-3.00
2019-02-25T04:54:15.948Z,-3.04
2019-02-25T04:55:15.961Z,-3.05
2019-02-25T04:56:16.024Z,-3.11
2019-02-25T04:57:15.969Z,-3.10
2019-02-25T04:58:15.957Z,-3.10
2019-02-25T04:59:15.953Z,-3.12
2019-02-25T05:00:16.026Z,-3.17
2019-02-25T05:01:15.959Z,-3.20
2019-02-25T05:02:15.951Z,-3.23
2019-02-25T05:03:16.033Z,-3.26
2019-02-25T05:04:16.040Z,-3.27
2019-02-25T05:05:16.063Z,-3.20
2019-02-25T05:06:15.987Z,-3.11
2019-02-25T05:07:16.045Z,-3.03
2019-02-25T05:08:16.046Z,-3.01
2019-02-25T05:09:15.990Z,-2.98
2019-02-25T05:10:16.064Z,-3.00
2019-02-25T05:11:15.938Z,-3.01
2019-02-25T05:12:16.061Z,-3.03
2019-02-25T05:13:15.992Z,-3.05
2019-02-25T05:14:15.953Z,-3.07
2019-02-25T05:15:16.045Z,-3.10
2019-02-25T05:16:15.998Z,-3.08
2019-02-25T05:17:16.134Z,-3.04
2019-02-25T05:18:16.000Z,-3.05
2019-02-25T05:19:15.994Z,-3.07
2019-02-25T05:20:16.000Z,-3.08
2019-02-25T05:21:16.066Z,-3.11
2019-02-25T05:22:16.094Z,-3.15
2019-02-25T05:23:15.987Z,-3.12
2019-02-25T05:24:15.993Z,-3.10
2019-02-25T05:25:16.059Z,-3.10
2019-02-25T05:26:15.958Z,-3.05
2019-02-25T05:27:16.000Z,-2.98
2019-02-25T05:28:16.072Z,-2.89
2019-02-25T05:29:15.977Z,-2.81
2019-02-25T05:30:16.058Z,-2.81
2019-02-25T05:31:15.979Z,-2.79
2019-02-25T05:32:15.998Z,-2.85
2019-02-25T05:33:15.992Z,-2.89
2019-02-25T05:34:15.979Z,-2.94
2019-02-25T05:35:16.049Z,-2.98
2019-02-25T05:36:16.050Z,-2.98
2019-02-25T05:37:15.971Z,-3.03
2019-02-25T05:38:16.051Z,-3.07
2019-02-25T05:39:16.052Z,-3.12
2019-02-25T05:40:15.980Z,-3.11
2019-02-25T05:41:16.050Z,-3.10
2019-02-25T05:42:15.980Z,-3.16
2019-02-25T05:43:16.055Z,-3.19
2019-02-25T05:44:16.004Z,-3.19
2019-02-25T05:45:16.065Z,-3.17
2019-02-25T05:46:16.067Z,-3.10
2019-02-25T05:47:16.067Z,-3.03
2019-02-25T05:48:16.014Z,-3.03
2019-02-25T05:49:16.065Z,-3.05
2019-02-25T05:50:16.069Z,-3.08
2019-02-25T05:51:16.087Z,-3.11
2019-02-25T05:52:16.064Z,-3.17
2019-02-25T05:53:16.072Z,-3.22
2019-02-25T05:54:16.066Z,-3.24
2019-02-25T05:55:16.086Z,-3.30
2019-02-25T05:56:16.097Z,-3.31
2019-02-25T05:57:16.034Z,-3.35
2019-02-25T05:58:15.964Z,-3.40
2019-02-25T05:59:15.966Z,-3.46
2019-02-25T06:00:16.089Z,-3.51
2019-02-25T06:01:16.030Z,-3.51
2019-02-25T06:02:16.016Z,-3.54
2019-02-25T06:03:16.043Z,-3.49
2019-02-25T06:04:15.974Z,-3.40
2019-02-25T06:05:16.078Z,-3.36
2019-02-25T06:06:16.083Z,-3.31
2019-02-25T06:07:16.084Z,-3.27
2019-02-25T06:08:16.114Z,-3.27
2019-02-25T06:09:16.023Z,-3.30
2019-02-25T06:10:16.086Z,-3.35
2019-02-25T06:11:16.093Z,-3.35
2019-02-25T06:12:16.083Z,-3.39
2019-02-25T06:13:16.084Z,-3.43
2019-02-25T06:14:16.036Z,-3.45
2019-02-25T06:15:16.090Z,-3.39
2019-02-25T06:16:16.093Z,-3.35
2019-02-25T06:17:16.020Z,-3.30
2019-02-25T06:18:16.012Z,-3.22
2019-02-25T06:19:16.112Z,-3.16
2019-02-25T06:20:16.052Z,-3.12
2019-02-25T06:21:16.032Z,-3.15
2019-02-25T06:22:16.097Z,-3.17
2019-02-25T06:23:16.015Z,-3.22
2019-02-25T06:24:16.054Z,-3.24
2019-02-25T06:25:16.161Z,-3.28
2019-02-25T06:26:15.947Z,-3.34
2019-02-25T06:27:16.045Z,-3.35
2019-02-25T06:28:15.958Z,-3.39
2019-02-25T06:29:16.038Z,-3.45
2019-02-25T06:30:16.034Z,-3.47
2019-02-25T06:31:15.992Z,-3.50
2019-02-25T06:32:16.061Z,-3.54
2019-02-25T06:33:16.034Z,-3.51
2019-02-25T06:34:16.036Z,-3.49
2019-02-25T06:35:16.030Z,-3.43
2019-02-25T06:36:16.072Z,-3.31
2019-02-25T06:37:16.073Z,-3.19
2019-02-25T06:38:15.994Z,-3.05
2019-02-25T06:39:16.012Z,-2.97
2019-02-25T06:40:16.291Z,-2.94
2019-02-25T06:41:15.993Z,-2.93
2019-02-25T06:42:16.019Z,-2.92
2019-02-25T06:43:15.997Z,-2.87
2019-02-25T06:44:15.992Z,-2.86
2019-02-25T06:45:16.061Z,-2.85
2019-02-25T06:46:16.236Z,-2.83
2019-02-25T06:47:16.101Z,-2.82
2019-02-25T06:48:16.036Z,-2.79
2019-02-25T06:49:16.051Z,-2.75
2019-02-25T06:50:16.068Z,-2.74
2019-02-25T06:51:16.126Z,-2.71
2019-02-25T06:52:16.051Z,-2.67
2019-02-25T06:53:16.116Z,-2.65
2019-02-25T06:54:16.114Z,-2.65
2019-02-25T06:55:16.126Z,-2.61
2019-02-25T06:56:16.039Z,-2.60
2019-02-25T06:57:16.123Z,-2.53
2019-02-25T06:58:16.052Z,-2.52
2019-02-25T06:59:16.073Z,-2.44
2019-02-25T07:00:16.014Z,-2.38
2019-02-25T07:01:16.006Z,-2.33
2019-02-25T07:02:16.124Z,-2.33
2019-02-25T07:03:16.114Z,-2.27
2019-02-25T07:04:16.060Z,-2.29
2019-02-25T07:05:15.959Z,-2.26
2019-02-25T07:06:15.932Z,-2.23
2019-02-25T07:07:15.943Z,-2.22
2019-02-25T07:08:15.938Z,-2.19
2019-02-25T07:09:15.996Z,-2.16
2019-02-25T07:10:15.967Z,-2.11
2019-02-25T07:12:16.008Z,-2.00
2019-02-25T07:13:16.041Z,-1.97
2019-02-25T07:14:15.936Z,-1.89
2019-02-25T07:15:16.039Z,-1.84
2019-02-25T07:16:16.122Z,-1.74
2019-02-25T07:17:16.121Z,-1.66
2019-02-25T07:18:16.057Z,-1.58
2019-02-25T07:19:16.046Z,-1.49
2019-02-25T07:20:16.048Z,-1.44
2019-02-25T07:21:16.125Z,-1.36
2019-02-25T07:22:16.045Z,-1.28
2019-02-25T07:23:16.126Z,-1.21
2019-02-25T07:24:16.076Z,-1.15
2019-02-25T07:25:16.120Z,-1.11
2019-02-25T07:26:16.046Z,-1.04
2019-02-25T07:27:16.124Z,-0.95
2019-02-25T07:28:16.123Z,-0.88
2019-02-25T07:29:16.059Z,-0.81
2019-02-25T07:30:16.125Z,-0.73
2019-02-25T07:31:16.061Z,-0.62
2019-02-25T07:32:16.124Z,-0.54
2019-02-25T07:33:16.125Z,-0.44
2019-02-25T07:34:16.059Z,-0.38
2019-02-25T07:35:16.139Z,-0.31
2019-02-25T07:36:16.069Z,-0.24
2019-02-25T07:37:16.143Z,-0.17
2019-02-25T07:38:16.161Z,-0.06
2019-02-25T07:39:16.068Z,0.02
2019-02-25T07:40:16.140Z,0.16
2019-02-25T07:41:16.140Z,0.27
2019-02-25T07:42:16.146Z,0.37
2019-02-25T07:43:16.155Z,0.44
2019-02-25T07:44:16.083Z,0.54
2019-02-25T07:45:16.058Z,0.60
2019-02-25T07:46:16.134Z,0.65
2019-02-25T07:47:16.136Z,0.75
2019-02-25T07:48:16.076Z,0.83
2019-02-25T07:49:16.137Z,0.94
2019-02-25T07:50:16.073Z,1.06
2019-02-25T07:51:16.070Z,1.20
2019-02-25T07:52:16.064Z,1.31
2019-02-25T07:53:16.067Z,1.39
2019-02-25T07:54:16.068Z,1.45
2019-02-25T07:55:16.082Z,1.57
2019-02-25T07:56:16.115Z,1.67
2019-02-25T07:57:16.081Z,1.76
2019-02-25T07:58:16.084Z,1.91
2019-02-25T07:59:16.177Z,2.01
2019-02-25T08:00:16.085Z,2.09
2019-02-25T08:01:16.165Z,2.16
2019-02-25T08:02:16.108Z,2.20
2019-02-25T08:03:16.175Z,2.26
2019-02-25T08:04:16.162Z,2.31
2019-02-25T08:05:16.072Z,2.27
2019-02-25T08:06:16.077Z,2.31
2019-02-25T08:07:16.071Z,2.33
2019-02-25T08:08:16.076Z,2.42
2019-02-25T08:09:16.157Z,2.57
2019-02-25T08:10:16.077Z,2.66
2019-02-25T08:11:16.105Z,2.62
2019-02-25T08:12:16.152Z,2.61
2019-02-25T08:13:16.125Z,2.69
2019-02-25T08:14:16.157Z,2.72
2019-02-25T08:15:16.096Z,2.80
2019-02-25T08:16:16.158Z,2.84
2019-02-25T08:17:16.161Z,2.88
2019-02-25T08:18:16.155Z,2.95
2019-02-25T08:19:16.159Z,3.06
2019-02-25T08:20:16.083Z,3.21
2019-02-25T08:21:16.159Z,3.36
2019-02-25T08:22:16.098Z,3.54
2019-02-25T08:23:16.161Z,3.69
2019-02-25T08:24:16.166Z,3.62
2019-02-25T08:25:16.170Z,3.57
2019-02-25T08:26:16.101Z,3.58
2019-02-25T08:27:16.111Z,3.58
2019-02-25T08:28:16.072Z,3.57
2019-02-25T08:29:16.112Z,3.55
2019-02-25T08:30:16.171Z,3.69
2019-02-25T08:31:16.177Z,3.81
2019-02-25T08:32:16.180Z,3.81
2019-02-25T08:33:16.176Z,3.74
2019-02-25T08:34:18.665Z,3.58
2019-02-25T08:35:16.118Z,3.62
2019-02-25T08:36:16.179Z,3.64
2019-02-25T08:37:16.123Z,3.61
2019-02-25T08:38:16.114Z,3.62
2019-02-25T08:39:16.113Z,3.62
2019-02-25T08:40:16.189Z,3.55
2019-02-25T08:41:16.112Z,3.54
2019-02-25T08:42:16.124Z,3.55
2019-02-25T08:43:16.184Z,3.68
2019-02-25T08:44:16.185Z,3.81
2019-02-25T08:45:16.109Z,3.97
2019-02-25T08:46:16.173Z,4.12
2019-02-25T08:47:16.102Z,4.22
2019-02-25T08:48:16.179Z,4.26
2019-02-25T08:49:16.181Z,4.41
2019-02-25T08:50:16.180Z,4.50
2019-02-25T08:51:16.106Z,4.55
2019-02-25T08:52:16.181Z,4.69
2019-02-25T08:53:16.115Z,4.80
2019-02-25T08:54:16.110Z,4.95
2019-02-25T08:55:16.144Z,5.10
2019-02-25T08:56:16.142Z,5.19
2019-02-25T08:57:16.144Z,5.29
2019-02-25T08:58:16.116Z,5.52
2019-02-25T08:59:16.149Z,5.52
2019-02-25T09:00:16.048Z,5.44
2019-02-25T09:01:16.133Z,5.44
2019-02-25T09:02:16.114Z,5.51
2019-02-25T09:03:16.125Z,5.63
2019-02-25T09:04:16.155Z,5.86
2019-02-25T09:05:16.131Z,5.95
2019-02-25T09:06:16.209Z,5.92
2019-02-25T09:07:16.129Z,6.08
2019-02-25T09:08:16.207Z,6.19
2019-02-25T09:09:16.135Z,6.36
2019-02-25T09:10:16.137Z,6.44
2019-02-25T09:11:16.145Z,6.51
2019-02-25T09:12:16.135Z,6.44
2019-02-25T09:13:16.210Z,6.44
2019-02-25T09:14:16.136Z,6.63
2019-02-25T09:15:16.111Z,6.79
2019-02-25T09:16:16.131Z,6.93
2019-02-25T09:17:16.246Z,6.89
2019-02-25T09:18:16.122Z,6.94
2019-02-25T09:19:16.198Z,7.12
2019-02-25T09:20:16.123Z,7.16
2019-02-25T09:21:16.203Z,7.19
2019-02-25T09:22:16.133Z,7.19
2019-02-25T09:23:16.204Z,7.19
2019-02-25T09:24:16.204Z,7.37
2019-02-25T09:25:16.263Z,7.49
2019-02-25T09:26:16.128Z,7.64
2019-02-25T09:27:16.205Z,7.74
2019-02-25T09:28:16.201Z,7.64
2019-02-25T09:29:16.212Z,7.79
2019-02-25T09:30:16.132Z,7.74
2019-02-25T09:31:16.138Z,7.67
2019-02-25T09:32:16.132Z,7.60
2019-02-25T09:33:16.123Z,7.81
2019-02-25T09:34:16.170Z,8.04
2019-02-25T09:35:16.219Z,8.02
2019-02-25T09:36:16.152Z,7.89
2019-02-25T09:37:16.157Z,7.82
2019-02-25T09:38:16.182Z,7.81
2019-02-25T09:39:16.897Z,7.85
2019-02-25T09:40:16.221Z,7.99
2019-02-25T09:41:16.222Z,7.86
2019-02-25T09:42:16.231Z,7.92
2019-02-25T09:43:16.159Z,7.93
2019-02-25T09:44:16.223Z,8.22
2019-02-25T09:45:16.182Z,8.45
2019-02-25T09:46:16.148Z,8.49
2019-02-25T09:47:16.197Z,8.46
2019-02-25T09:48:16.222Z,8.45
2019-02-25T09:49:16.149Z,8.60
2019-02-25T09:50:16.134Z,8.47
2019-02-25T09:51:16.225Z,8.51
2019-02-25T09:52:16.152Z,8.71
2019-02-25T09:53:16.177Z,8.97
2019-02-25T09:54:16.152Z,9.16
2019-02-25T09:55:16.229Z,9.22
2019-02-25T09:56:16.185Z,9.16
2019-02-25T09:57:16.160Z,9.20
2019-02-25T09:58:16.156Z,9.36
2019-02-25T09:59:16.121Z,9.22
2019-02-25T10:00:16.169Z,9.19
2019-02-25T10:01:16.149Z,9.44
2019-02-25T10:02:16.234Z,9.44
2019-02-25T10:03:16.119Z,9.58
2019-02-25T10:04:16.201Z,9.73
2019-02-25T10:05:16.247Z,9.75
2019-02-25T10:06:16.241Z,9.58
2019-02-25T10:07:16.246Z,9.72
2019-02-25T10:08:16.175Z,9.95
2019-02-25T10:09:16.247Z,9.93
2019-02-25T10:10:16.244Z,9.69
2019-02-25T10:11:16.174Z,9.62
2019-02-25T10:12:16.246Z,9.72
2019-02-25T10:13:16.186Z,9.82
2019-02-25T10:14:16.184Z,9.84
2019-02-25T10:15:16.277Z,9.78
2019-02-25T10:16:16.186Z,9.78
2019-02-25T10:17:23.540Z,9.83
2019-02-25T10:18:16.172Z,10.13
2019-02-25T10:19:16.230Z,10.47
2019-02-25T10:20:16.188Z,10.84
2019-02-25T10:21:16.243Z,11.16
2019-02-25T10:22:16.123Z,11.49
2019-02-25T10:23:16.152Z,11.61
2019-02-25T10:24:16.239Z,11.64
2019-02-25T10:25:16.252Z,11.42
2019-02-25T10:26:16.263Z,11.03
2019-02-25T10:27:16.260Z,11.09
2019-02-25T10:28:16.261Z,11.25
2019-02-25T10:29:16.188Z,11.47
2019-02-25T10:30:16.266Z,11.43
2019-02-25T10:31:17.499Z,11.56
2019-02-25T10:32:16.262Z,11.57
2019-02-25T10:33:16.204Z,11.64
2019-02-25T10:34:17.924Z,11.67
2019-02-25T10:35:16.125Z,11.71
2019-02-25T10:36:16.190Z,11.71
2019-02-25T10:37:17.150Z,11.80
2019-02-25T10:38:16.153Z,11.89
2019-02-25T10:39:17.824Z,12.02
2019-02-25T10:40:20.269Z,12.33
2019-02-25T10:41:17.151Z,12.58
2019-02-25T10:42:16.213Z,12.72
2019-02-25T10:43:16.166Z,12.98
2019-02-25T10:44:16.188Z,13.00
2019-02-25T10:45:16.199Z,13.12
2019-02-25T10:46:17.692Z,13.39
2019-02-25T10:47:19.006Z,13.43
2019-02-25T10:48:17.795Z,13.56
2019-02-25T10:49:16.209Z,13.66
2019-02-25T10:50:16.271Z,13.62
2019-02-25T10:51:16.337Z,13.54
2019-02-25T10:52:17.278Z,13.45
2019-02-25T10:53:17.799Z,13.62
2019-02-25T10:54:16.947Z,13.95
2019-02-25T10:55:16.224Z,14.28
2019-02-25T10:56:16.828Z,14.36
2019-02-25T10:57:16.132Z,14.06
2019-02-25T10:58:16.228Z,14.15
2019-02-25T10:59:16.248Z,14.22
2019-02-25T11:00:16.197Z,13.96
2019-02-25T11:01:19.684Z,13.69
2019-02-25T11:02:17.483Z,13.54
2019-02-25T11:03:17.860Z,13.53
2019-02-25T11:04:17.457Z,13.35
2019-02-25T11:05:16.283Z,13.16
2019-02-25T11:06:16.204Z,13.14
2019-02-25T11:07:16.212Z,13.16
2019-02-25T11:08:16.320Z,13.05
2019-02-25T11:09:18.022Z,12.94
2019-02-25T11:10:18.179Z,13.05
2019-02-25T11:11:16.796Z,13.25
2019-02-25T11:12:16.216Z,13.36
2019-02-25T11:13:16.279Z,13.39
2019-02-25T11:14:16.282Z,13.45
2019-02-25T11:15:16.227Z,13.49
2019-02-25T11:16:18.144Z,13.73
2019-02-25T11:17:18.184Z,13.83
2019-02-25T11:18:19.168Z,13.73
2019-02-25T11:19:16.163Z,13.57
2019-02-25T11:20:16.329Z,13.54
2019-02-25T11:21:16.224Z,13.51
2019-02-25T11:22:16.463Z,13.35
2019-02-25T11:23:17.624Z,13.36
2019-02-25T11:24:17.112Z,13.39
2019-02-25T11:25:16.245Z,13.46
2019-02-25T11:26:16.253Z,13.77
2019-02-25T11:27:16.214Z,14.11
2019-02-25T11:28:25.382Z,14.43
2019-02-25T11:29:16.436Z,14.73
2019-02-25T11:30:17.200Z,14.98
2019-02-25T11:31:18.179Z,15.22
2019-02-25T11:32:17.279Z,15.37
2019-02-25T11:33:16.298Z,15.44
2019-02-25T11:34:16.219Z,15.53
2019-02-25T11:35:16.177Z,15.46
2019-02-25T11:36:17.718Z,15.32
2019-02-25T11:37:16.806Z,15.26
2019-02-25T11:38:16.165Z,15.48
2019-02-25T11:39:16.172Z,15.66
2019-02-25T11:40:16.125Z,15.86
2019-02-25T11:41:16.181Z,16.02
2019-02-25T11:42:20.269Z,16.29
2019-02-25T11:43:18.639Z,16.44
2019-02-25T11:44:17.172Z,16.66
2019-02-25T11:45:16.227Z,16.83
2019-02-25T11:46:16.238Z,16.84
2019-02-25T11:47:16.231Z,16.99
2019-02-25T11:48:16.238Z,17.29
2019-02-25T11:49:16.230Z,17.28
2019-02-25T11:50:16.232Z,17.37
2019-02-25T11:51:16.243Z,17.54
2019-02-25T11:52:16.306Z,17.65
2019-02-25T11:53:16.236Z,17.55
2019-02-25T11:54:16.312Z,17.72
2019-02-25T11:55:16.279Z,17.75
2019-02-25T11:56:16.273Z,17.55
2019-02-25T11:57:16.238Z,17.68
2019-02-25T11:58:16.244Z,17.53
2019-02-25T11:59:16.223Z,17.25
2019-02-25T12:00:16.226Z,16.91
2019-02-25T12:01:16.246Z,16.72
2019-02-25T12:02:24.985Z,16.84
2019-02-25T12:03:16.225Z,16.91
2019-02-25T12:04:16.320Z,17.13
2019-02-25T12:05:16.259Z,16.90
2019-02-25T12:06:16.259Z,16.72
2019-02-25T12:07:16.293Z,16.88
2019-02-25T12:08:16.257Z,17.20
2019-02-25T12:09:16.296Z,17.31
2019-02-25T12:10:16.330Z,17.14
2019-02-25T12:11:16.317Z,16.94
2019-02-25T12:12:16.259Z,17.03
2019-02-25T12:13:16.330Z,17.22
2019-02-25T12:14:16.279Z,17.09
2019-02-25T12:15:16.347Z,17.02
2019-02-25T12:16:16.332Z,17.10
2019-02-25T12:17:16.277Z,17.29
2019-02-25T12:18:16.264Z,17.47
2019-02-25T12:19:18.186Z,17.76
2019-02-25T12:20:16.337Z,17.98
2019-02-25T12:21:16.339Z,18.24
2019-02-25T12:22:16.267Z,18.50
2019-02-25T12:23:16.267Z,18.64
2019-02-25T12:24:16.278Z,18.86
2019-02-25T12:25:16.270Z,19.24
2019-02-25T12:26:16.237Z,19.32
2019-02-25T12:27:16.263Z,19.29
2019-02-25T12:28:16.301Z,19.27
2019-02-25T12:29:16.333Z,19.24
2019-02-25T12:30:16.331Z,19.05
2019-02-25T12:31:16.241Z,18.79
2019-02-25T12:32:16.328Z,18.66
2019-02-25T12:33:16.338Z,18.66
2019-02-25T12:34:16.324Z,18.81
2019-02-25T12:35:16.343Z,18.88
2019-02-25T12:36:16.346Z,19.02
2019-02-25T12:37:16.277Z,19.06
2019-02-25T12:38:16.346Z,19.15
2019-02-25T12:39:16.279Z,19.27
2019-02-25T12:40:16.280Z,19.38
2019-02-25T12:41:16.242Z,19.19
2019-02-25T12:42:16.287Z,19.02
2019-02-25T12:43:16.379Z,19.25
2019-02-25T12:44:16.314Z,19.17
2019-02-25T12:45:16.305Z,19.25
2019-02-25T12:46:16.345Z,19.38
2019-02-25T12:47:16.270Z,19.62
2019-02-25T12:48:16.304Z,19.61
2019-02-25T12:49:16.347Z,19.83
2019-02-25T12:50:16.308Z,19.95
2019-02-25T12:51:16.274Z,20.17
2019-02-25T12:52:16.349Z,20.39
2019-02-25T12:53:16.320Z,20.42
2019-02-25T12:54:16.353Z,20.50
2019-02-25T12:55:16.349Z,20.53
2019-02-25T12:56:16.357Z,20.64
2019-02-25T12:57:16.375Z,20.80
2019-02-25T12:58:16.310Z,20.82
2019-02-25T12:59:16.367Z,20.80